Edmore, Michigan
Current Conditions -  °F | °C
As of 5:52 PM on Tuesday 21 Oct 2014 (Local Time) from KAMN Reporting Station
Scattered Clouds Scattered Clouds  
Wind Chill: 51°   Ceiling: Unl
Heat Index: 51°   Visibility: 10mi
Dew Point: 32°   Wind: 7mph
Humidity: 49%   Direction: 20°NNE
Pressure: 30.16"   Gusts: NA
Location:  43.41°N, 85.04°W
Report Text: KAMN 212152Z AUTO 02006KT 10SM SCT048 11/00 A3016 RMK AO2 T01050001
Loading
Personal Weather Stations






























Interactive Weather Map
Tropical Storm Tracking
New forecast layout! Learn more

10-Day Weather Forecast

Advertisements
Track Severe Weather on mobile